createdAt,value
2022-12-12T00:01:28.444Z,14.70
2022-12-12T00:03:57.140Z,14.63
2022-12-12T00:06:25.512Z,15.65
2022-12-12T00:08:53.968Z,18.20
2022-12-12T00:11:23.906Z,17.83
2022-12-12T00:13:53.386Z,21.08
2022-12-12T00:16:22.125Z,21.58
2022-12-12T00:18:50.433Z,18.42
2022-12-12T00:21:23.297Z,15.93
2022-12-12T00:23:52.472Z,15.80
2022-12-12T00:26:30.610Z,14.05
2022-12-12T00:29:00.133Z,15.30
2022-12-12T00:31:28.895Z,16.42
2022-12-12T00:33:57.654Z,17.15
2022-12-12T00:36:29.075Z,16.70
2022-12-12T00:38:58.643Z,18.25
2022-12-12T00:41:27.248Z,18.10
2022-12-12T00:43:55.617Z,19.33
2022-12-12T00:46:26.418Z,18.10
2022-12-12T00:48:56.987Z,19.25
2022-12-12T00:51:27.304Z,21.38
2022-12-12T00:53:58.199Z,19.75
2022-12-12T00:56:27.400Z,19.48
2022-12-12T00:58:55.852Z,17.48
2022-12-12T01:01:28.001Z,22.50
2022-12-12T01:03:56.652Z,27.33
2022-12-12T01:06:25.041Z,26.85
2022-12-12T01:08:54.027Z,26.73
2022-12-12T01:11:23.297Z,25.58
2022-12-12T01:13:53.794Z,26.80
2022-12-12T01:16:23.704Z,27.05
2022-12-12T01:18:52.355Z,25.85
2022-12-12T01:21:21.578Z,19.73
2022-12-12T01:23:50.114Z,19.00
2022-12-12T01:26:21.524Z,19.80
2022-12-12T01:28:50.334Z,17.27
2022-12-12T01:31:19.229Z,17.83
2022-12-12T01:33:47.730Z,17.45
2022-12-12T01:36:18.802Z,15.38
2022-12-12T01:38:48.657Z,16.50
2022-12-12T01:41:18.277Z,15.82
2022-12-12T01:43:47.278Z,14.52
2022-12-12T01:46:37.016Z,14.73
2022-12-12T01:49:19.538Z,14.85
2022-12-12T01:51:50.507Z,15.30
2022-12-12T01:54:24.016Z,14.85
2022-12-12T01:56:53.448Z,14.73
2022-12-12T01:59:25.157Z,13.57
2022-12-12T02:01:54.914Z,14.02
2022-12-12T02:04:24.409Z,14.27
2022-12-12T02:06:53.624Z,17.10
2022-12-12T02:09:23.312Z,16.17
2022-12-12T02:11:55.260Z,20.23
2022-12-12T02:14:33.730Z,21.38
2022-12-12T02:17:02.266Z,34.20
2022-12-12T02:19:51.559Z,32.80
2022-12-12T02:22:54.530Z,46.60
2022-12-12T02:25:28.919Z,29.30
2022-12-12T02:28:41.039Z,37.15
2022-12-12T02:31:22.086Z,42.22
2022-12-12T02:34:16.649Z,45.83
2022-12-12T02:36:57.581Z,42.60
2022-12-12T02:39:38.691Z,43.88
2022-12-12T02:42:27.229Z,42.55
2022-12-12T02:45:10.380Z,39.25
2022-12-12T02:47:45.822Z,40.65
2022-12-12T02:50:26.984Z,38.15
2022-12-12T02:52:55.276Z,42.10
2022-12-12T02:55:23.387Z,40.47
2022-12-12T02:57:52.740Z,39.15
2022-12-12T03:00:21.192Z,36.75
2022-12-12T03:03:08.109Z,34.58
2022-12-12T03:05:44.667Z,31.70
2022-12-12T03:08:46.167Z,31.58
2022-12-12T03:11:24.026Z,28.92
2022-12-12T03:13:52.327Z,28.38
2022-12-12T03:16:26.322Z,27.33
2022-12-12T03:19:16.921Z,27.42
2022-12-12T03:21:53.326Z,25.80
2022-12-12T03:24:35.297Z,25.98
2022-12-12T03:27:13.919Z,26.30
2022-12-12T03:29:47.536Z,27.38
2022-12-12T03:32:24.204Z,26.08
2022-12-12T03:35:07.195Z,25.20
2022-12-12T03:37:39.917Z,26.98
2022-12-12T03:40:30.202Z,29.25
2022-12-12T03:43:05.809Z,27.60
2022-12-12T03:45:41.702Z,27.98
2022-12-12T03:48:21.742Z,25.15
2022-12-12T03:50:55.612Z,25.75
2022-12-12T03:53:31.331Z,26.45
2022-12-12T03:56:20.718Z,25.23
2022-12-12T03:58:51.912Z,25.42
2022-12-12T04:01:24.196Z,25.03
2022-12-12T04:04:28.842Z,25.33
2022-12-12T04:07:14.904Z,27.02
2022-12-12T04:09:43.858Z,26.35
2022-12-12T04:12:42.578Z,24.48
2022-12-12T04:15:32.131Z,25.88
2022-12-12T04:18:28.031Z,25.70
2022-12-12T04:21:17.757Z,24.70
2022-12-12T04:24:00.602Z,23.92
2022-12-12T04:26:38.056Z,25.88
2022-12-12T04:29:28.233Z,26.52
2022-12-12T04:31:59.521Z,25.08
2022-12-12T04:34:40.028Z,26.23
2022-12-12T04:37:12.012Z,26.30
2022-12-12T04:39:43.681Z,24.35
2022-12-12T04:42:15.899Z,27.75
2022-12-12T04:44:45.492Z,28.48
2022-12-12T04:47:16.273Z,27.83
2022-12-12T04:49:47.480Z,27.20
2022-12-12T04:52:18.639Z,26.93
2022-12-12T04:55:00.946Z,26.15
2022-12-12T05:00:00.921Z,26.77
2022-12-12T05:02:39.090Z,28.65
2022-12-12T05:05:25.229Z,29.05
2022-12-12T05:08:03.865Z,31.00
2022-12-12T05:10:33.046Z,30.45
2022-12-12T05:13:02.109Z,31.13
2022-12-12T05:15:30.832Z,28.90
2022-12-12T05:18:08.179Z,30.80
2022-12-12T05:20:36.557Z,31.20
2022-12-12T05:23:05.421Z,31.00
2022-12-12T05:25:34.125Z,29.08
2022-12-12T05:28:02.533Z,28.45
2022-12-12T05:30:30.722Z,26.13
2022-12-12T05:32:59.134Z,28.30
2022-12-12T05:35:28.203Z,25.17
2022-12-12T05:37:56.387Z,25.33
2022-12-12T05:40:24.844Z,24.52
2022-12-12T05:42:53.059Z,24.20
2022-12-12T05:45:21.355Z,25.20
2022-12-12T05:47:49.769Z,25.35
2022-12-12T05:50:18.100Z,25.30
2022-12-12T05:52:46.393Z,24.02
2022-12-12T05:55:15.408Z,23.55
2022-12-12T05:57:43.643Z,25.33
2022-12-12T06:00:12.233Z,25.75
2022-12-12T06:02:40.828Z,25.92
2022-12-12T06:05:09.511Z,25.70
2022-12-12T06:07:37.589Z,23.05
2022-12-12T06:10:06.704Z,26.15
2022-12-12T06:12:34.913Z,26.80
2022-12-12T06:15:03.409Z,29.50
2022-12-12T06:17:33.493Z,37.25
2022-12-12T06:20:02.231Z,41.58
2022-12-12T06:22:30.609Z,42.90
2022-12-12T06:24:58.885Z,47.45
2022-12-12T06:27:27.093Z,51.95
2022-12-12T06:29:55.426Z,49.40
2022-12-12T06:32:23.696Z,41.75
2022-12-12T06:34:51.924Z,34.45
2022-12-12T06:37:20.432Z,35.95
2022-12-12T06:39:48.627Z,37.05
2022-12-12T06:42:16.824Z,37.83
2022-12-12T06:44:45.647Z,40.42
2022-12-12T06:47:14.041Z,40.47
2022-12-12T06:49:42.486Z,41.20
2022-12-12T06:52:10.726Z,34.00
2022-12-12T06:54:39.001Z,31.33
2022-12-12T06:57:07.289Z,28.75
2022-12-12T06:59:35.536Z,27.02
2022-12-12T07:02:04.159Z,25.52
2022-12-12T07:04:32.596Z,24.23
2022-12-12T07:07:00.833Z,25.60
2022-12-12T07:09:29.110Z,27.50
2022-12-12T07:11:57.673Z,27.50
2022-12-12T07:14:25.927Z,28.50
2022-12-12T07:16:57.302Z,28.58
2022-12-12T07:19:25.616Z,30.33
2022-12-12T07:21:53.697Z,34.65
2022-12-12T07:24:22.141Z,33.90
2022-12-12T07:26:50.228Z,41.72
2022-12-12T07:29:18.444Z,43.00
2022-12-12T07:31:47.403Z,43.90
2022-12-12T07:34:15.716Z,40.65
2022-12-12T07:36:44.120Z,41.75
2022-12-12T07:39:15.933Z,41.53
2022-12-12T07:47:00.279Z,36.30
2022-12-12T07:49:29.624Z,32.30
2022-12-12T07:51:57.819Z,28.98
2022-12-12T07:54:25.997Z,29.80
2022-12-12T07:56:54.277Z,27.90
2022-12-12T07:59:22.687Z,26.50
2022-12-12T08:01:50.810Z,27.67
2022-12-12T08:04:19.109Z,25.90
2022-12-12T08:06:47.692Z,26.50
2022-12-12T08:09:15.802Z,27.05
2022-12-12T08:11:46.687Z,25.23
2022-12-12T08:14:15.779Z,28.37
2022-12-12T08:16:44.183Z,25.52
2022-12-12T08:19:12.694Z,23.13
2022-12-12T08:21:41.165Z,22.55
2022-12-12T08:24:13.452Z,19.13
2022-12-12T08:26:42.349Z,19.20
2022-12-12T08:29:13.554Z,21.65
2022-12-12T08:31:43.600Z,22.15
2022-12-12T08:34:12.399Z,24.15
2022-12-12T08:36:40.660Z,22.35
2022-12-12T08:39:11.754Z,24.90
2022-12-12T08:41:43.251Z,23.93
2022-12-12T08:44:13.116Z,24.65
2022-12-12T08:46:42.173Z,25.75
2022-12-12T08:49:11.043Z,23.92
2022-12-12T08:51:40.779Z,24.88
2022-12-12T08:54:09.173Z,25.40
2022-12-12T08:56:37.321Z,24.80
2022-12-12T08:59:05.775Z,24.77
2022-12-12T09:01:34.122Z,24.45
2022-12-12T09:04:03.096Z,26.10
2022-12-12T09:06:31.775Z,25.45
2022-12-12T09:09:00.333Z,26.25
2022-12-12T09:11:28.690Z,25.23
2022-12-12T09:13:57.361Z,22.05
2022-12-12T09:16:27.094Z,24.10
2022-12-12T09:18:55.357Z,22.52
2022-12-12T09:21:23.919Z,35.40
2022-12-12T09:23:52.455Z,26.05
2022-12-12T09:26:20.624Z,24.88
2022-12-12T09:28:50.313Z,23.90
2022-12-12T09:31:19.305Z,23.85
2022-12-12T09:33:47.648Z,23.95
2022-12-12T09:36:16.903Z,21.83
2022-12-12T09:38:46.261Z,19.17
2022-12-12T09:41:18.494Z,17.92
2022-12-12T09:43:58.725Z,20.85
2022-12-12T09:46:51.183Z,22.60
2022-12-12T09:49:39.874Z,19.58
2022-12-12T09:52:31.265Z,19.30
2022-12-12T09:55:23.609Z,19.27
2022-12-12T09:58:27.692Z,19.60
2022-12-12T10:01:13.700Z,22.13
2022-12-12T10:04:04.117Z,23.05
2022-12-12T10:06:58.350Z,23.33
2022-12-12T10:09:41.586Z,24.60
2022-12-12T10:12:15.195Z,21.45
2022-12-12T10:15:00.339Z,17.38
2022-12-12T10:17:48.962Z,15.40
2022-12-12T10:20:29.264Z,19.98
2022-12-12T10:23:22.018Z,16.10
2022-12-12T10:25:53.860Z,14.55
2022-12-12T10:28:25.577Z,15.38
2022-12-12T10:31:21.144Z,14.77
2022-12-12T10:34:08.380Z,24.33
2022-12-12T10:37:09.772Z,18.15
2022-12-12T10:39:54.441Z,15.35
2022-12-12T10:42:25.705Z,20.83
2022-12-12T10:45:08.390Z,22.13
2022-12-12T10:47:36.784Z,17.07
2022-12-12T10:50:33.653Z,14.93
2022-12-12T10:53:05.590Z,15.88
2022-12-12T10:55:58.887Z,18.27
2022-12-12T10:58:29.277Z,19.00
2022-12-12T11:01:03.418Z,16.63
2022-12-12T11:03:39.301Z,16.70
2022-12-12T11:06:12.688Z,16.42
2022-12-12T11:08:57.434Z,19.55
2022-12-12T11:11:28.573Z,14.82
2022-12-12T11:13:59.611Z,15.70
2022-12-12T11:16:32.295Z,20.40
2022-12-12T11:19:11.505Z,18.75
2022-12-12T11:21:40.036Z,26.95
2022-12-12T11:24:13.788Z,16.25
2022-12-12T11:27:05.336Z,18.80
2022-12-12T11:29:49.550Z,17.80
2022-12-12T11:32:25.887Z,15.88
2022-12-12T11:34:58.886Z,14.18
2022-12-12T11:37:37.608Z,16.38
2022-12-12T11:40:18.474Z,18.92
2022-12-12T11:42:47.076Z,14.75
2022-12-12T11:45:15.279Z,14.90
2022-12-12T11:47:45.799Z,15.25
2022-12-12T11:50:29.480Z,14.13
2022-12-12T11:53:00.493Z,21.08
2022-12-12T11:55:43.066Z,18.58
2022-12-12T11:58:27.412Z,15.88
2022-12-12T12:01:16.520Z,15.10
2022-12-12T12:04:08.940Z,14.63
2022-12-12T12:06:54.046Z,14.75
2022-12-12T12:09:52.482Z,13.63
2022-12-12T12:12:56.326Z,13.82
2022-12-12T12:16:13.008Z,14.85
2022-12-12T12:19:00.767Z,15.25
2022-12-12T12:21:57.726Z,14.10
2022-12-12T12:24:41.339Z,16.73
2022-12-12T12:27:19.892Z,14.57
2022-12-12T12:30:42.318Z,14.27
2022-12-12T12:33:32.302Z,15.45
2022-12-12T12:36:23.337Z,14.73
2022-12-12T12:39:11.462Z,14.65
2022-12-12T13:08:42.048Z,14.30
2022-12-12T13:11:22.640Z,14.65
2022-12-12T13:13:52.919Z,14.93
2022-12-12T13:16:27.235Z,16.02
2022-12-12T13:19:24.870Z,14.20
2022-12-12T13:22:14.585Z,15.50
2022-12-12T13:25:06.210Z,15.10
2022-12-12T13:27:39.816Z,18.10
2022-12-12T13:30:26.805Z,14.98
2022-12-12T13:32:58.194Z,15.43
2022-12-12T13:35:35.565Z,15.20
2022-12-12T13:38:04.539Z,14.52
2022-12-12T13:40:42.027Z,13.25
2022-12-12T14:12:17.977Z,17.00
2022-12-12T14:15:08.282Z,15.82
2022-12-12T14:17:42.867Z,17.25
2022-12-12T14:20:36.462Z,16.63
2022-12-12T14:23:23.590Z,18.50
2022-12-12T14:25:52.401Z,17.77
2022-12-12T14:28:33.176Z,23.63
2022-12-12T14:31:16.502Z,18.17
2022-12-12T14:34:26.645Z,17.55
2022-12-12T14:37:03.907Z,16.58
2022-12-12T14:40:02.051Z,15.43
2022-12-12T14:43:21.778Z,18.38
2022-12-12T14:45:50.557Z,17.63
2022-12-12T14:48:30.319Z,18.45
2022-12-12T14:51:11.473Z,24.77
2022-12-12T14:53:39.785Z,17.65
2022-12-12T14:56:16.905Z,16.17
2022-12-12T14:59:20.302Z,18.73
2022-12-12T15:02:00.524Z,15.00
2022-12-12T15:04:33.320Z,18.17
2022-12-12T15:07:21.998Z,16.77
2022-12-12T15:09:50.978Z,20.13
2022-12-12T15:12:22.804Z,20.98
2022-12-12T15:14:51.124Z,19.23
2022-12-12T15:17:23.423Z,20.55
2022-12-12T15:20:13.661Z,23.42
2022-12-12T15:23:07.120Z,16.38
2022-12-12T15:25:58.422Z,15.05
2022-12-12T15:28:27.072Z,15.15
2022-12-12T15:30:57.432Z,14.88
2022-12-12T15:33:27.536Z,14.75
2022-12-12T15:36:02.711Z,15.20
2022-12-12T15:38:33.039Z,14.00
2022-12-12T15:41:11.172Z,15.52
2022-12-12T15:43:42.392Z,15.02
2022-12-12T15:46:15.192Z,14.80
2022-12-12T15:48:48.686Z,13.65
2022-12-12T15:51:24.376Z,14.65
2022-12-12T15:53:54.883Z,13.98
2022-12-12T15:56:24.972Z,11.98
2022-12-12T15:59:09.945Z,12.73
2022-12-12T16:01:38.561Z,14.55
2022-12-12T16:04:23.936Z,14.65
2022-12-12T16:06:52.468Z,12.10
2022-12-12T16:09:25.501Z,13.15
2022-12-12T16:11:57.577Z,13.57
2022-12-12T16:14:39.523Z,14.05
2022-12-12T16:17:18.981Z,14.73
2022-12-12T16:19:54.769Z,13.05
2022-12-12T16:22:34.749Z,12.07
2022-12-12T16:25:27.060Z,16.27
2022-12-12T16:28:10.609Z,14.55
2022-12-12T16:30:44.069Z,11.27
2022-12-12T16:33:29.497Z,13.48
2022-12-12T16:36:00.413Z,12.55
2022-12-12T16:41:42.363Z,14.52
2022-12-12T16:44:10.621Z,12.57
2022-12-12T16:46:38.726Z,13.25
2022-12-12T16:49:15.047Z,15.00
2022-12-12T16:51:43.582Z,17.05
2022-12-12T16:54:18.403Z,13.40
2022-12-12T16:56:46.788Z,13.70
2022-12-12T16:59:15.035Z,14.93
2022-12-12T17:01:43.318Z,12.93
2022-12-12T17:04:21.050Z,14.50
2022-12-12T17:06:50.130Z,14.77
2022-12-12T17:11:57.449Z,14.38
2022-12-12T17:14:26.023Z,14.00
2022-12-12T17:16:55.719Z,17.38
2022-12-12T17:19:27.369Z,24.07
2022-12-12T17:21:55.490Z,21.45
2022-12-12T17:24:23.639Z,15.38
2022-12-12T17:26:52.070Z,17.88
2022-12-12T17:29:21.402Z,21.80
2022-12-12T17:31:49.767Z,22.42
2022-12-12T17:34:18.107Z,25.00
2022-12-12T17:36:46.251Z,27.52
2022-12-12T17:39:14.743Z,25.98
2022-12-12T17:41:42.826Z,17.90
2022-12-12T17:44:11.222Z,23.52
2022-12-12T17:46:39.349Z,29.33
2022-12-12T17:49:07.764Z,19.98
2022-12-12T17:51:35.932Z,22.67
2022-12-12T17:54:04.475Z,22.88
2022-12-12T17:56:32.710Z,18.23
2022-12-12T17:59:01.066Z,21.42
2022-12-12T18:01:30.983Z,17.08
2022-12-12T18:04:00.335Z,20.58
2022-12-12T18:06:31.258Z,21.73
2022-12-12T18:09:03.335Z,31.23
2022-12-12T18:11:33.573Z,26.90
2022-12-12T18:14:03.672Z,25.77
2022-12-12T18:16:33.981Z,20.08
2022-12-12T18:19:03.652Z,18.83
2022-12-12T18:24:24.960Z,28.85
2022-12-12T18:26:57.912Z,33.65
2022-12-12T18:29:27.299Z,28.83
2022-12-12T18:31:55.604Z,46.80
2022-12-12T18:34:24.125Z,25.55
2022-12-12T18:36:52.618Z,19.33
2022-12-12T18:39:21.335Z,16.98
2022-12-12T18:41:49.583Z,18.75
2022-12-12T18:44:18.006Z,27.92
2022-12-12T18:46:49.460Z,31.13
2022-12-12T18:49:17.817Z,28.25
2022-12-12T18:51:47.750Z,23.77
2022-12-12T18:54:17.047Z,26.48
2022-12-12T18:56:46.949Z,43.95
2022-12-12T18:59:16.015Z,33.20
2022-12-12T19:01:44.688Z,25.95
2022-12-12T19:04:20.919Z,40.20
2022-12-12T19:09:14.428Z,30.95
2022-12-12T19:11:43.968Z,23.90
2022-12-12T19:14:13.979Z,20.98
2022-12-12T19:16:43.416Z,28.17
2022-12-12T19:19:12.421Z,25.10
2022-12-12T19:21:42.496Z,19.85
2022-12-12T19:24:11.592Z,21.55
2022-12-12T19:26:42.209Z,23.75
2022-12-12T19:29:19.088Z,32.55
2022-12-12T19:31:48.168Z,29.50
2022-12-12T19:34:17.361Z,34.47
2022-12-12T19:36:45.926Z,30.67
2022-12-12T19:39:14.314Z,31.38
2022-12-12T19:41:44.107Z,32.00
2022-12-12T19:44:13.398Z,31.45
2022-12-12T19:46:44.985Z,28.05
2022-12-12T19:49:15.754Z,25.35
2022-12-12T19:51:45.039Z,27.88
2022-12-12T19:54:20.667Z,29.35
2022-12-12T19:56:49.200Z,26.27
2022-12-12T19:59:20.210Z,22.65
2022-12-12T20:01:48.678Z,26.02
2022-12-12T20:04:23.108Z,24.10
2022-12-12T20:06:52.148Z,26.17
2022-12-12T20:09:24.618Z,28.85
2022-12-12T20:11:53.770Z,26.75
2022-12-12T20:14:24.643Z,26.08
2022-12-12T20:16:54.046Z,27.67
2022-12-12T20:19:24.206Z,27.50
2022-12-12T20:22:01.182Z,29.33
2022-12-12T20:24:33.931Z,29.10
2022-12-12T20:27:02.864Z,27.73
2022-12-12T20:29:31.371Z,25.98
2022-12-12T20:32:00.018Z,23.92
2022-12-12T20:34:29.582Z,25.10
2022-12-12T20:36:57.999Z,26.60
2022-12-12T20:39:26.487Z,27.73
2022-12-12T20:41:55.323Z,28.75
2022-12-12T20:44:24.299Z,24.90
2022-12-12T20:46:53.126Z,22.50
2022-12-12T20:49:22.208Z,22.20
2022-12-12T20:51:55.819Z,23.77
2022-12-12T20:54:27.176Z,24.25
2022-12-12T20:56:56.342Z,35.92
2022-12-12T20:59:25.664Z,35.90
2022-12-12T21:01:54.654Z,39.17
2022-12-12T21:04:23.813Z,37.40
2022-12-12T21:06:52.449Z,31.88
2022-12-12T21:09:24.959Z,31.05
2022-12-12T21:11:58.596Z,37.17
2022-12-12T21:14:28.544Z,27.80
2022-12-12T21:16:57.039Z,31.13
2022-12-12T21:19:25.732Z,42.92
2022-12-12T21:21:54.526Z,36.40
2022-12-12T21:24:22.957Z,38.72
2022-12-12T21:26:51.846Z,34.33
2022-12-12T21:29:20.376Z,39.55
2022-12-12T21:31:51.942Z,50.05
2022-12-12T21:34:24.394Z,69.45
2022-12-12T21:39:26.662Z,85.37
2022-12-12T21:41:55.725Z,52.88
2022-12-12T21:44:24.530Z,33.45
2022-12-12T21:46:53.315Z,30.98
2022-12-12T21:49:21.916Z,32.97
2022-12-12T21:51:50.289Z,56.92
2022-12-12T21:54:18.781Z,115.93
2022-12-12T21:56:47.465Z,103.25
2022-12-12T21:59:16.109Z,97.70
2022-12-12T22:01:44.677Z,64.70
2022-12-12T22:04:14.201Z,91.13
2022-12-12T22:06:45.954Z,95.25
2022-12-12T22:09:15.322Z,32.03
2022-12-12T22:11:50.535Z,23.90
2022-12-12T22:14:21.820Z,19.10
2022-12-12T22:16:50.401Z,35.17
2022-12-12T22:19:20.532Z,33.17
2022-12-12T22:21:49.464Z,36.63
2022-12-12T22:24:18.824Z,31.13
2022-12-12T22:26:50.722Z,48.90
2022-12-12T22:29:20.845Z,88.45
2022-12-12T22:31:49.580Z,78.85
2022-12-12T22:34:21.166Z,100.88
2022-12-12T22:36:49.638Z,85.50
2022-12-12T22:39:22.013Z,67.80
2022-12-12T22:41:50.427Z,69.40
2022-12-12T22:44:20.770Z,116.43
2022-12-12T22:46:50.937Z,71.82
2022-12-12T22:49:21.994Z,43.17
2022-12-12T22:51:51.242Z,87.10
2022-12-12T22:54:20.074Z,101.07
2022-12-12T22:56:48.281Z,75.38
2022-12-12T22:59:16.755Z,114.35
2022-12-12T23:01:44.991Z,115.85
2022-12-12T23:04:14.576Z,86.65
2022-12-12T23:06:44.204Z,68.75
2022-12-12T23:09:21.100Z,49.70
2022-12-12T23:11:50.300Z,75.68
2022-12-12T23:14:21.264Z,98.80
2022-12-12T23:16:51.096Z,29.98
2022-12-12T23:19:23.726Z,25.95
2022-12-12T23:21:52.604Z,44.55
2022-12-12T23:24:20.949Z,30.02
2022-12-12T23:26:52.279Z,56.17
2022-12-12T23:29:21.161Z,106.47
2022-12-12T23:31:49.982Z,110.78
2022-12-12T23:34:21.551Z,89.93
2022-12-12T23:36:51.034Z,78.88
2022-12-12T23:39:19.596Z,81.07
2022-12-12T23:41:48.544Z,101.28
2022-12-12T23:44:18.502Z,106.88
2022-12-12T23:46:48.582Z,71.60
2022-12-12T23:49:19.960Z,39.35
2022-12-12T23:51:50.838Z,65.47
2022-12-12T23:54:22.068Z,65.65
2022-12-12T23:56:51.653Z,65.93
2022-12-12T23:59:21.895Z,98.28
